sensor_id;sensor_type;location;lat;lon;timestamp;P1;durP1;ratioP1;P2;durP2;ratioP2
4704;SDS011;2366;51.332;6.610;2024-01-25T00:00:28;47.33;;;9.70;;
4704;SDS011;2366;51.332;6.610;2024-01-25T00:02:53;49.47;;;8.83;;
4704;SDS011;2366;51.332;6.610;2024-01-25T00:05:19;57.17;;;9.40;;
4704;SDS011;2366;51.332;6.610;2024-01-25T00:07:45;37.97;;;8.43;;
4704;SDS011;2366;51.332;6.610;2024-01-25T00:10:14;51.83;;;9.32;;
4704;SDS011;2366;51.332;6.610;2024-01-25T00:12:41;45.38;;;8.13;;
4704;SDS011;2366;51.332;6.610;2024-01-25T00:15:07;46.88;;;8.77;;
4704;SDS011;2366;51.332;6.610;2024-01-25T00:17:33;45.55;;;10.90;;
4704;SDS011;2366;51.332;6.610;2024-01-25T00:19:59;52.50;;;9.43;;
4704;SDS011;2366;51.332;6.610;2024-01-25T00:22:24;42.10;;;11.03;;
4704;SDS011;2366;51.332;6.610;2024-01-25T00:24:50;55.10;;;8.27;;
4704;SDS011;2366;51.332;6.610;2024-01-25T00:27:15;45.73;;;9.33;;
4704;SDS011;2366;51.332;6.610;2024-01-25T00:29:41;46.50;;;9.80;;
4704;SDS011;2366;51.332;6.610;2024-01-25T00:32:06;44.30;;;9.02;;
4704;SDS011;2366;51.332;6.610;2024-01-25T00:34:32;40.47;;;9.70;;
4704;SDS011;2366;51.332;6.610;2024-01-25T00:36:57;49.63;;;10.03;;
4704;SDS011;2366;51.332;6.610;2024-01-25T00:39:23;56.33;;;8.33;;
4704;SDS011;2366;51.332;6.610;2024-01-25T00:41:50;48.47;;;10.47;;
4704;SDS011;2366;51.332;6.610;2024-01-25T00:44:16;46.75;;;9.10;;
4704;SDS011;2366;51.332;6.610;2024-01-25T00:46:42;44.65;;;9.45;;
4704;SDS011;2366;51.332;6.610;2024-01-25T00:49:08;43.43;;;9.47;;
4704;SDS011;2366;51.332;6.610;2024-01-25T00:51:34;40.93;;;9.80;;
4704;SDS011;2366;51.332;6.610;2024-01-25T00:54:01;42.47;;;11.15;;
4704;SDS011;2366;51.332;6.610;2024-01-25T00:56:27;42.93;;;9.20;;
4704;SDS011;2366;51.332;6.610;2024-01-25T00:58:55;31.27;;;9.50;;
4704;SDS011;2366;51.332;6.610;2024-01-25T01:01:21;39.67;;;8.65;;
4704;SDS011;2366;51.332;6.610;2024-01-25T01:03:51;40.67;;;10.55;;
4704;SDS011;2366;51.332;6.610;2024-01-25T01:06:20;45.22;;;8.55;;
4704;SDS011;2366;51.332;6.610;2024-01-25T01:08:46;53.60;;;9.80;;
4704;SDS011;2366;51.332;6.610;2024-01-25T01:11:12;44.90;;;10.25;;
4704;SDS011;2366;51.332;6.610;2024-01-25T01:13:37;28.27;;;7.40;;
4704;SDS011;2366;51.332;6.610;2024-01-25T01:16:02;49.53;;;8.80;;
4704;SDS011;2366;51.332;6.610;2024-01-25T01:18:28;49.67;;;12.17;;
4704;SDS011;2366;51.332;6.610;2024-01-25T01:20:54;36.70;;;7.23;;
4704;SDS011;2366;51.332;6.610;2024-01-25T01:23:19;51.93;;;11.80;;
4704;SDS011;2366;51.332;6.610;2024-01-25T01:25:45;50.13;;;10.87;;
4704;SDS011;2366;51.332;6.610;2024-01-25T01:28:10;42.17;;;9.80;;
4704;SDS011;2366;51.332;6.610;2024-01-25T01:30:35;60.27;;;10.07;;
4704;SDS011;2366;51.332;6.610;2024-01-25T01:33:01;44.80;;;10.43;;
4704;SDS011;2366;51.332;6.610;2024-01-25T01:35:26;34.53;;;8.77;;
4704;SDS011;2366;51.332;6.610;2024-01-25T01:37:51;51.83;;;10.10;;
4704;SDS011;2366;51.332;6.610;2024-01-25T01:40:17;54.40;;;10.50;;
4704;SDS011;2366;51.332;6.610;2024-01-25T01:42:42;43.97;;;8.60;;
4704;SDS011;2366;51.332;6.610;2024-01-25T01:45:08;59.47;;;10.93;;
4704;SDS011;2366;51.332;6.610;2024-01-25T01:47:37;50.15;;;9.45;;
4704;SDS011;2366;51.332;6.610;2024-01-25T01:50:02;43.00;;;8.23;;
4704;SDS011;2366;51.332;6.610;2024-01-25T01:52:29;52.83;;;9.77;;
4704;SDS011;2366;51.332;6.610;2024-01-25T01:54:55;43.80;;;9.27;;
4704;SDS011;2366;51.332;6.610;2024-01-25T01:57:21;52.40;;;10.40;;
4704;SDS011;2366;51.332;6.610;2024-01-25T01:59:46;51.13;;;7.87;;
4704;SDS011;2366;51.332;6.610;2024-01-25T02:02:14;41.95;;;8.50;;
4704;SDS011;2366;51.332;6.610;2024-01-25T02:04:39;48.40;;;9.07;;
4704;SDS011;2366;51.332;6.610;2024-01-25T02:07:06;46.13;;;9.63;;
4704;SDS011;2366;51.332;6.610;2024-01-25T02:09:32;38.88;;;8.13;;
4704;SDS011;2366;51.332;6.610;2024-01-25T02:12:00;39.20;;;9.77;;
4704;SDS011;2366;51.332;6.610;2024-01-25T02:14:30;55.45;;;8.65;;
4704;SDS011;2366;51.332;6.610;2024-01-25T02:16:56;59.53;;;10.38;;
4704;SDS011;2366;51.332;6.610;2024-01-25T02:19:21;60.60;;;10.23;;
4704;SDS011;2366;51.332;6.610;2024-01-25T02:21:47;41.37;;;8.23;;
4704;SDS011;2366;51.332;6.610;2024-01-25T02:24:13;44.45;;;8.00;;
4704;SDS011;2366;51.332;6.610;2024-01-25T02:26:38;48.03;;;8.27;;
4704;SDS011;2366;51.332;6.610;2024-01-25T02:29:04;49.10;;;9.00;;
4704;SDS011;2366;51.332;6.610;2024-01-25T02:31:30;62.23;;;9.20;;
4704;SDS011;2366;51.332;6.610;2024-01-25T02:33:55;37.13;;;8.67;;
4704;SDS011;2366;51.332;6.610;2024-01-25T02:36:24;51.03;;;7.60;;
4704;SDS011;2366;51.332;6.610;2024-01-25T02:38:49;51.25;;;8.90;;
4704;SDS011;2366;51.332;6.610;2024-01-25T02:41:15;51.23;;;9.60;;
4704;SDS011;2366;51.332;6.610;2024-01-25T02:43:40;35.97;;;8.63;;
4704;SDS011;2366;51.332;6.610;2024-01-25T02:46:06;45.30;;;9.83;;
4704;SDS011;2366;51.332;6.610;2024-01-25T02:48:32;41.15;;;11.52;;
4704;SDS011;2366;51.332;6.610;2024-01-25T02:50:57;40.90;;;7.97;;
4704;SDS011;2366;51.332;6.610;2024-01-25T02:53:23;43.20;;;8.43;;
4704;SDS011;2366;51.332;6.610;2024-01-25T02:55:48;41.27;;;7.13;;
4704;SDS011;2366;51.332;6.610;2024-01-25T02:58:20;47.07;;;10.23;;
4704;SDS011;2366;51.332;6.610;2024-01-25T03:00:45;53.60;;;10.35;;
4704;SDS011;2366;51.332;6.610;2024-01-25T03:03:11;49.50;;;10.67;;
4704;SDS011;2366;51.332;6.610;2024-01-25T03:05:36;30.40;;;9.17;;
4704;SDS011;2366;51.332;6.610;2024-01-25T03:08:02;37.17;;;9.23;;
4704;SDS011;2366;51.332;6.610;2024-01-25T03:10:27;41.93;;;7.97;;
4704;SDS011;2366;51.332;6.610;2024-01-25T03:12:55;30.35;;;9.30;;
4704;SDS011;2366;51.332;6.610;2024-01-25T03:15:20;45.97;;;10.00;;
4704;SDS011;2366;51.332;6.610;2024-01-25T03:17:46;63.27;;;11.00;;
4704;SDS011;2366;51.332;6.610;2024-01-25T03:20:11;53.33;;;10.00;;
4704;SDS011;2366;51.332;6.610;2024-01-25T03:22:37;39.20;;;8.03;;
4704;SDS011;2366;51.332;6.610;2024-01-25T03:25:02;43.57;;;8.73;;
4704;SDS011;2366;51.332;6.610;2024-01-25T03:27:28;41.70;;;6.80;;
4704;SDS011;2366;51.332;6.610;2024-01-25T03:29:53;49.43;;;7.83;;
4704;SDS011;2366;51.332;6.610;2024-01-25T03:32:18;39.57;;;10.73;;
4704;SDS011;2366;51.332;6.610;2024-01-25T03:34:44;56.43;;;10.10;;
4704;SDS011;2366;51.332;6.610;2024-01-25T03:37:09;60.10;;;12.20;;
4704;SDS011;2366;51.332;6.610;2024-01-25T03:39:35;36.27;;;9.40;;
4704;SDS011;2366;51.332;6.610;2024-01-25T03:42:00;50.67;;;9.70;;
4704;SDS011;2366;51.332;6.610;2024-01-25T03:44:25;51.90;;;9.83;;
4704;SDS011;2366;51.332;6.610;2024-01-25T03:46:51;51.63;;;10.07;;
4704;SDS011;2366;51.332;6.610;2024-01-25T03:49:16;48.50;;;10.50;;
4704;SDS011;2366;51.332;6.610;2024-01-25T03:51:42;45.97;;;8.93;;
4704;SDS011;2366;51.332;6.610;2024-01-25T03:54:07;56.00;;;9.53;;
4704;SDS011;2366;51.332;6.610;2024-01-25T03:56:36;57.97;;;10.73;;
4704;SDS011;2366;51.332;6.610;2024-01-25T03:59:01;27.53;;;8.43;;
4704;SDS011;2366;51.332;6.610;2024-01-25T04:01:26;52.73;;;8.60;;
4704;SDS011;2366;51.332;6.610;2024-01-25T04:03:52;57.10;;;11.03;;
4704;SDS011;2366;51.332;6.610;2024-01-25T04:06:17;54.70;;;9.77;;
4704;SDS011;2366;51.332;6.610;2024-01-25T04:08:45;66.57;;;11.03;;
4704;SDS011;2366;51.332;6.610;2024-01-25T04:11:11;51.15;;;8.90;;
4704;SDS011;2366;51.332;6.610;2024-01-25T04:13:36;39.97;;;9.30;;
4704;SDS011;2366;51.332;6.610;2024-01-25T04:16:01;38.50;;;7.40;;
4704;SDS011;2366;51.332;6.610;2024-01-25T04:18:27;58.80;;;9.67;;
4704;SDS011;2366;51.332;6.610;2024-01-25T04:20:52;42.13;;;8.40;;
4704;SDS011;2366;51.332;6.610;2024-01-25T04:23:18;49.80;;;9.87;;
4704;SDS011;2366;51.332;6.610;2024-01-25T04:25:46;60.13;;;9.18;;
4704;SDS011;2366;51.332;6.610;2024-01-25T04:28:14;47.70;;;12.02;;
4704;SDS011;2366;51.332;6.610;2024-01-25T04:30:39;59.83;;;10.50;;
4704;SDS011;2366;51.332;6.610;2024-01-25T04:33:04;87.27;;;14.17;;
4704;SDS011;2366;51.332;6.610;2024-01-25T04:35:30;62.13;;;10.73;;
4704;SDS011;2366;51.332;6.610;2024-01-25T04:37:56;63.22;;;9.65;;
4704;SDS011;2366;51.332;6.610;2024-01-25T04:40:22;45.27;;;10.30;;
4704;SDS011;2366;51.332;6.610;2024-01-25T04:42:47;75.87;;;10.50;;
4704;SDS011;2366;51.332;6.610;2024-01-25T04:45:12;65.37;;;9.83;;
4704;SDS011;2366;51.332;6.610;2024-01-25T04:47:38;64.13;;;14.03;;
4704;SDS011;2366;51.332;6.610;2024-01-25T04:50:04;45.72;;;9.40;;
4704;SDS011;2366;51.332;6.610;2024-01-25T04:52:30;57.60;;;10.70;;
4704;SDS011;2366;51.332;6.610;2024-01-25T04:54:55;55.33;;;10.07;;
4704;SDS011;2366;51.332;6.610;2024-01-25T04:57:21;56.13;;;9.17;;
4704;SDS011;2366;51.332;6.610;2024-01-25T04:59:46;55.97;;;8.87;;
4704;SDS011;2366;51.332;6.610;2024-01-25T05:02:12;53.80;;;9.13;;
4704;SDS011;2366;51.332;6.610;2024-01-25T05:04:37;53.57;;;11.70;;
4704;SDS011;2366;51.332;6.610;2024-01-25T05:07:02;51.60;;;10.90;;
4704;SDS011;2366;51.332;6.610;2024-01-25T05:09:28;57.43;;;11.57;;
4704;SDS011;2366;51.332;6.610;2024-01-25T05:11:53;36.10;;;10.37;;
4704;SDS011;2366;51.332;6.610;2024-01-25T05:14:23;69.88;;;9.80;;
4704;SDS011;2366;51.332;6.610;2024-01-25T05:16:48;60.43;;;11.90;;
4704;SDS011;2366;51.332;6.610;2024-01-25T05:19:14;60.17;;;10.13;;
4704;SDS011;2366;51.332;6.610;2024-01-25T05:21:39;51.33;;;10.73;;
4704;SDS011;2366;51.332;6.610;2024-01-25T05:24:04;59.27;;;10.90;;
4704;SDS011;2366;51.332;6.610;2024-01-25T05:26:30;68.03;;;12.30;;
4704;SDS011;2366;51.332;6.610;2024-01-25T05:28:55;61.70;;;13.70;;
4704;SDS011;2366;51.332;6.610;2024-01-25T05:31:21;40.30;;;8.87;;
4704;SDS011;2366;51.332;6.610;2024-01-25T05:33:46;67.63;;;10.63;;
4704;SDS011;2366;51.332;6.610;2024-01-25T05:36:12;58.90;;;9.27;;
4704;SDS011;2366;51.332;6.610;2024-01-25T05:38:38;53.53;;;8.80;;
4704;SDS011;2366;51.332;6.610;2024-01-25T05:41:04;54.10;;;11.20;;
4704;SDS011;2366;51.332;6.610;2024-01-25T05:43:29;66.27;;;10.50;;
4704;SDS011;2366;51.332;6.610;2024-01-25T05:45:55;25.77;;;7.50;;
4704;SDS011;2366;51.332;6.610;2024-01-25T05:48:20;52.90;;;9.80;;
4704;SDS011;2366;51.332;6.610;2024-01-25T05:50:45;65.67;;;10.57;;
4704;SDS011;2366;51.332;6.610;2024-01-25T05:53:11;59.50;;;10.43;;
4704;SDS011;2366;51.332;6.610;2024-01-25T05:55:36;42.13;;;9.43;;
4704;SDS011;2366;51.332;6.610;2024-01-25T05:58:02;53.40;;;10.93;;
4704;SDS011;2366;51.332;6.610;2024-01-25T06:00:27;54.27;;;9.20;;
4704;SDS011;2366;51.332;6.610;2024-01-25T06:02:53;60.70;;;12.43;;
4704;SDS011;2366;51.332;6.610;2024-01-25T06:05:18;46.87;;;11.67;;
4704;SDS011;2366;51.332;6.610;2024-01-25T06:07:44;62.93;;;10.43;;
4704;SDS011;2366;51.332;6.610;2024-01-25T06:10:09;67.30;;;12.03;;
4704;SDS011;2366;51.332;6.610;2024-01-25T06:12:35;53.77;;;9.27;;
4704;SDS011;2366;51.332;6.610;2024-01-25T06:15:00;43.03;;;9.37;;
4704;SDS011;2366;51.332;6.610;2024-01-25T06:17:26;52.00;;;9.80;;
4704;SDS011;2366;51.332;6.610;2024-01-25T06:19:51;65.57;;;11.23;;
4704;SDS011;2366;51.332;6.610;2024-01-25T06:22:16;72.57;;;11.73;;
4704;SDS011;2366;51.332;6.610;2024-01-25T06:24:42;58.10;;;11.90;;
4704;SDS011;2366;51.332;6.610;2024-01-25T06:27:09;61.70;;;12.20;;
4704;SDS011;2366;51.332;6.610;2024-01-25T06:29:35;60.17;;;9.95;;
4704;SDS011;2366;51.332;6.610;2024-01-25T06:32:00;44.83;;;10.10;;
4704;SDS011;2366;51.332;6.610;2024-01-25T06:34:25;57.00;;;13.60;;
4704;SDS011;2366;51.332;6.610;2024-01-25T06:36:51;45.60;;;10.53;;
4704;SDS011;2366;51.332;6.610;2024-01-25T06:39:16;70.10;;;12.17;;
4704;SDS011;2366;51.332;6.610;2024-01-25T06:41:42;55.57;;;10.90;;
4704;SDS011;2366;51.332;6.610;2024-01-25T06:44:07;50.57;;;10.10;;
4704;SDS011;2366;51.332;6.610;2024-01-25T06:46:33;71.50;;;12.17;;
4704;SDS011;2366;51.332;6.610;2024-01-25T06:48:58;61.00;;;10.63;;
4704;SDS011;2366;51.332;6.610;2024-01-25T06:51:24;43.47;;;10.53;;
4704;SDS011;2366;51.332;6.610;2024-01-25T06:53:49;72.40;;;14.73;;
4704;SDS011;2366;51.332;6.610;2024-01-25T06:56:14;60.47;;;9.10;;
4704;SDS011;2366;51.332;6.610;2024-01-25T06:58:40;51.03;;;9.97;;
4704;SDS011;2366;51.332;6.610;2024-01-25T07:01:05;51.87;;;11.53;;
4704;SDS011;2366;51.332;6.610;2024-01-25T07:03:30;46.37;;;11.70;;
4704;SDS011;2366;51.332;6.610;2024-01-25T07:05:56;58.70;;;10.63;;
4704;SDS011;2366;51.332;6.610;2024-01-25T07:08:21;63.63;;;10.90;;
4704;SDS011;2366;51.332;6.610;2024-01-25T07:10:49;70.38;;;12.80;;
4704;SDS011;2366;51.332;6.610;2024-01-25T07:13:14;56.43;;;10.50;;
4704;SDS011;2366;51.332;6.610;2024-01-25T07:15:40;58.13;;;10.10;;
4704;SDS011;2366;51.332;6.610;2024-01-25T07:18:05;68.53;;;11.93;;
4704;SDS011;2366;51.332;6.610;2024-01-25T07:20:31;58.40;;;13.20;;
4704;SDS011;2366;51.332;6.610;2024-01-25T07:22:56;51.20;;;10.33;;
4704;SDS011;2366;51.332;6.610;2024-01-25T07:25:21;64.57;;;11.67;;
4704;SDS011;2366;51.332;6.610;2024-01-25T07:27:47;54.33;;;11.13;;
4704;SDS011;2366;51.332;6.610;2024-01-25T07:30:14;45.97;;;12.00;;
4704;SDS011;2366;51.332;6.610;2024-01-25T07:32:40;64.70;;;11.68;;
4704;SDS011;2366;51.332;6.610;2024-01-25T07:35:07;67.90;;;12.48;;
4704;SDS011;2366;51.332;6.610;2024-01-25T07:37:34;39.78;;;10.93;;
4704;SDS011;2366;51.332;6.610;2024-01-25T07:40:00;72.13;;;13.20;;
4704;SDS011;2366;51.332;6.610;2024-01-25T07:42:25;62.03;;;14.03;;
4704;SDS011;2366;51.332;6.610;2024-01-25T07:44:51;59.27;;;12.20;;
4704;SDS011;2366;51.332;6.610;2024-01-25T07:47:16;58.00;;;12.63;;
4704;SDS011;2366;51.332;6.610;2024-01-25T07:49:41;55.23;;;12.00;;
4704;SDS011;2366;51.332;6.610;2024-01-25T07:52:07;70.30;;;11.70;;
4704;SDS011;2366;51.332;6.610;2024-01-25T07:54:32;49.23;;;11.40;;
4704;SDS011;2366;51.332;6.610;2024-01-25T07:56:58;49.97;;;11.97;;
4704;SDS011;2366;51.332;6.610;2024-01-25T07:59:23;63.27;;;12.03;;
4704;SDS011;2366;51.332;6.610;2024-01-25T08:01:48;55.27;;;12.90;;
4704;SDS011;2366;51.332;6.610;2024-01-25T08:04:14;62.83;;;12.90;;
4704;SDS011;2366;51.332;6.610;2024-01-25T08:06:39;60.20;;;13.37;;
4704;SDS011;2366;51.332;6.610;2024-01-25T08:09:04;48.83;;;11.50;;
4704;SDS011;2366;51.332;6.610;2024-01-25T08:11:30;59.20;;;13.03;;
4704;SDS011;2366;51.332;6.610;2024-01-25T08:13:55;55.90;;;12.67;;
4704;SDS011;2366;51.332;6.610;2024-01-25T08:16:21;43.50;;;11.70;;
4704;SDS011;2366;51.332;6.610;2024-01-25T08:18:47;61.97;;;12.30;;
4704;SDS011;2366;51.332;6.610;2024-01-25T08:21:13;51.47;;;10.65;;
4704;SDS011;2366;51.332;6.610;2024-01-25T08:23:38;32.97;;;11.33;;
4704;SDS011;2366;51.332;6.610;2024-01-25T08:26:04;50.67;;;10.90;;
4704;SDS011;2366;51.332;6.610;2024-01-25T08:28:30;39.63;;;10.70;;
4704;SDS011;2366;51.332;6.610;2024-01-25T08:30:55;56.23;;;13.93;;
4704;SDS011;2366;51.332;6.610;2024-01-25T08:33:21;51.43;;;11.20;;
4704;SDS011;2366;51.332;6.610;2024-01-25T08:35:46;47.73;;;10.90;;
4704;SDS011;2366;51.332;6.610;2024-01-25T08:38:11;60.43;;;11.87;;
4704;SDS011;2366;51.332;6.610;2024-01-25T08:40:37;52.50;;;11.63;;
4704;SDS011;2366;51.332;6.610;2024-01-25T08:43:02;62.67;;;11.97;;
4704;SDS011;2366;51.332;6.610;2024-01-25T08:45:29;48.97;;;12.80;;
4704;SDS011;2366;51.332;6.610;2024-01-25T08:47:55;47.90;;;12.43;;
4704;SDS011;2366;51.332;6.610;2024-01-25T08:50:21;47.40;;;11.80;;
4704;SDS011;2366;51.332;6.610;2024-01-25T08:52:46;43.47;;;12.87;;
4704;SDS011;2366;51.332;6.610;2024-01-25T08:55:12;59.67;;;12.73;;
4704;SDS011;2366;51.332;6.610;2024-01-25T08:57:38;40.55;;;15.65;;
4704;SDS011;2366;51.332;6.610;2024-01-25T09:00:06;49.75;;;14.25;;
4704;SDS011;2366;51.332;6.610;2024-01-25T09:02:38;59.33;;;16.42;;
4704;SDS011;2366;51.332;6.610;2024-01-25T09:05:07;46.78;;;17.80;;
4704;SDS011;2366;51.332;6.610;2024-01-25T09:07:33;54.30;;;19.05;;
4704;SDS011;2366;51.332;6.610;2024-01-25T09:09:59;52.23;;;17.67;;
4704;SDS011;2366;51.332;6.610;2024-01-25T09:12:25;50.80;;;16.50;;
4704;SDS011;2366;51.332;6.610;2024-01-25T09:14:50;68.10;;;19.67;;
4704;SDS011;2366;51.332;6.610;2024-01-25T09:17:16;62.00;;;19.43;;
4704;SDS011;2366;51.332;6.610;2024-01-25T09:19:46;48.33;;;18.38;;
4704;SDS011;2366;51.332;6.610;2024-01-25T09:22:16;62.67;;;19.17;;
4704;SDS011;2366;51.332;6.610;2024-01-25T09:24:43;57.20;;;18.25;;
4704;SDS011;2366;51.332;6.610;2024-01-25T09:27:08;55.50;;;22.10;;
4704;SDS011;2366;51.332;6.610;2024-01-25T09:29:34;59.87;;;19.67;;
4704;SDS011;2366;51.332;6.610;2024-01-25T09:32:00;59.10;;;20.57;;
4704;SDS011;2366;51.332;6.610;2024-01-25T09:34:25;62.03;;;19.40;;
4704;SDS011;2366;51.332;6.610;2024-01-25T09:36:51;52.57;;;19.63;;
4704;SDS011;2366;51.332;6.610;2024-01-25T09:39:17;49.93;;;17.40;;
4704;SDS011;2366;51.332;6.610;2024-01-25T09:41:42;46.97;;;18.17;;
4704;SDS011;2366;51.332;6.610;2024-01-25T09:44:08;56.93;;;19.90;;
4704;SDS011;2366;51.332;6.610;2024-01-25T09:46:34;48.83;;;19.30;;
4704;SDS011;2366;51.332;6.610;2024-01-25T09:49:01;39.17;;;17.03;;
4704;SDS011;2366;51.332;6.610;2024-01-25T09:51:27;42.72;;;18.05;;
4704;SDS011;2366;51.332;6.610;2024-01-25T09:54:01;49.88;;;19.13;;
4704;SDS011;2366;51.332;6.610;2024-01-25T09:56:28;54.20;;;18.92;;
4704;SDS011;2366;51.332;6.610;2024-01-25T09:58:56;59.20;;;19.40;;
4704;SDS011;2366;51.332;6.610;2024-01-25T10:01:23;45.25;;;19.73;;
4704;SDS011;2366;51.332;6.610;2024-01-25T10:03:49;49.67;;;17.93;;
4704;SDS011;2366;51.332;6.610;2024-01-25T10:06:14;56.43;;;19.07;;
4704;SDS011;2366;51.332;6.610;2024-01-25T10:08:41;53.85;;;17.38;;
4704;SDS011;2366;51.332;6.610;2024-01-25T10:11:07;54.47;;;20.23;;
4704;SDS011;2366;51.332;6.610;2024-01-25T10:13:46;44.25;;;18.58;;
4704;SDS011;2366;51.332;6.610;2024-01-25T10:16:13;55.00;;;17.77;;
4704;SDS011;2366;51.332;6.610;2024-01-25T10:18:40;56.97;;;19.35;;
4704;SDS011;2366;51.332;6.610;2024-01-25T10:21:08;57.28;;;19.55;;
4704;SDS011;2366;51.332;6.610;2024-01-25T10:23:34;63.08;;;20.90;;
4704;SDS011;2366;51.332;6.610;2024-01-25T10:26:00;54.50;;;20.87;;
4704;SDS011;2366;51.332;6.610;2024-01-25T10:28:25;51.47;;;17.93;;
4704;SDS011;2366;51.332;6.610;2024-01-25T10:30:55;48.55;;;17.58;;
4704;SDS011;2366;51.332;6.610;2024-01-25T10:33:22;54.15;;;19.35;;
4704;SDS011;2366;51.332;6.610;2024-01-25T10:35:50;42.03;;;17.65;;
4704;SDS011;2366;51.332;6.610;2024-01-25T10:38:20;51.75;;;20.92;;
4704;SDS011;2366;51.332;6.610;2024-01-25T10:40:46;51.08;;;17.38;;
4704;SDS011;2366;51.332;6.610;2024-01-25T10:43:12;65.47;;;17.90;;
4704;SDS011;2366;51.332;6.610;2024-01-25T10:45:38;57.93;;;17.20;;
4704;SDS011;2366;51.332;6.610;2024-01-25T10:48:03;61.83;;;17.23;;
4704;SDS011;2366;51.332;6.610;2024-01-25T10:50:30;60.78;;;19.08;;
4704;SDS011;2366;51.332;6.610;2024-01-25T10:52:55;53.67;;;17.03;;
4704;SDS011;2366;51.332;6.610;2024-01-25T10:55:21;52.23;;;17.50;;
4704;SDS011;2366;51.332;6.610;2024-01-25T10:57:47;56.42;;;17.50;;
4704;SDS011;2366;51.332;6.610;2024-01-25T11:00:13;41.13;;;16.47;;
4704;SDS011;2366;51.332;6.610;2024-01-25T11:02:41;52.13;;;18.60;;
4704;SDS011;2366;51.332;6.610;2024-01-25T11:05:11;66.53;;;19.50;;
4704;SDS011;2366;51.332;6.610;2024-01-25T11:07:44;55.92;;;18.85;;
4704;SDS011;2366;51.332;6.610;2024-01-25T11:10:13;54.60;;;18.67;;
4704;SDS011;2366;51.332;6.610;2024-01-25T11:12:51;48.03;;;16.15;;
4704;SDS011;2366;51.332;6.610;2024-01-25T11:15:29;63.25;;;17.40;;
4704;SDS011;2366;51.332;6.610;2024-01-25T11:17:56;56.80;;;17.50;;
4704;SDS011;2366;51.332;6.610;2024-01-25T11:20:23;51.70;;;17.58;;
4704;SDS011;2366;51.332;6.610;2024-01-25T11:22:55;69.43;;;19.77;;
4704;SDS011;2366;51.332;6.610;2024-01-25T11:25:23;57.17;;;18.08;;
4704;SDS011;2366;51.332;6.610;2024-01-25T11:27:48;68.70;;;18.43;;
4704;SDS011;2366;51.332;6.610;2024-01-25T11:30:17;62.22;;;17.65;;
4704;SDS011;2366;51.332;6.610;2024-01-25T11:32:45;67.70;;;18.95;;
4704;SDS011;2366;51.332;6.610;2024-01-25T11:35:12;39.00;;;18.27;;
4704;SDS011;2366;51.332;6.610;2024-01-25T11:37:41;50.70;;;18.88;;
4704;SDS011;2366;51.332;6.610;2024-01-25T11:40:08;66.20;;;21.05;;
4704;SDS011;2366;51.332;6.610;2024-01-25T11:42:34;71.90;;;19.30;;
4704;SDS011;2366;51.332;6.610;2024-01-25T11:45:00;60.50;;;19.40;;
4704;SDS011;2366;51.332;6.610;2024-01-25T11:47:25;47.57;;;18.43;;
4704;SDS011;2366;51.332;6.610;2024-01-25T11:49:50;60.13;;;18.73;;
4704;SDS011;2366;51.332;6.610;2024-01-25T11:52:16;50.20;;;18.67;;
4704;SDS011;2366;51.332;6.610;2024-01-25T11:54:41;73.20;;;20.80;;
4704;SDS011;2366;51.332;6.610;2024-01-25T11:57:07;55.53;;;18.37;;
4704;SDS011;2366;51.332;6.610;2024-01-25T11:59:32;63.00;;;18.37;;
4704;SDS011;2366;51.332;6.610;2024-01-25T12:01:59;45.75;;;18.70;;
4704;SDS011;2366;51.332;6.610;2024-01-25T12:04:24;55.53;;;18.90;;
4704;SDS011;2366;51.332;6.610;2024-01-25T12:06:50;54.77;;;19.40;;
4704;SDS011;2366;51.332;6.610;2024-01-25T12:09:15;58.43;;;19.83;;
4704;SDS011;2366;51.332;6.610;2024-01-25T12:11:41;65.67;;;18.17;;
4704;SDS011;2366;51.332;6.610;2024-01-25T12:14:07;62.43;;;19.30;;
4704;SDS011;2366;51.332;6.610;2024-01-25T12:16:35;53.33;;;18.98;;
4704;SDS011;2366;51.332;6.610;2024-01-25T12:19:00;63.03;;;21.30;;
4704;SDS011;2366;51.332;6.610;2024-01-25T12:21:26;75.27;;;23.43;;
4704;SDS011;2366;51.332;6.610;2024-01-25T12:23:51;62.87;;;22.87;;
4704;SDS011;2366;51.332;6.610;2024-01-25T12:26:16;64.00;;;24.73;;
4704;SDS011;2366;51.332;6.610;2024-01-25T12:28:42;61.30;;;23.60;;
4704;SDS011;2366;51.332;6.610;2024-01-25T12:31:08;51.23;;;22.93;;
4704;SDS011;2366;51.332;6.610;2024-01-25T12:33:34;55.87;;;23.30;;
4704;SDS011;2366;51.332;6.610;2024-01-25T12:36:01;60.67;;;23.20;;
4704;SDS011;2366;51.332;6.610;2024-01-25T12:38:27;60.17;;;25.33;;
4704;SDS011;2366;51.332;6.610;2024-01-25T12:40:55;59.22;;;22.25;;
4704;SDS011;2366;51.332;6.610;2024-01-25T12:43:20;55.73;;;22.13;;
4704;SDS011;2366;51.332;6.610;2024-01-25T12:45:48;52.35;;;23.30;;
4704;SDS011;2366;51.332;6.610;2024-01-25T12:48:14;59.60;;;21.77;;
4704;SDS011;2366;51.332;6.610;2024-01-25T12:50:41;67.77;;;23.03;;
4704;SDS011;2366;51.332;6.610;2024-01-25T12:53:06;60.20;;;23.83;;
4704;SDS011;2366;51.332;6.610;2024-01-25T12:55:32;59.67;;;24.40;;
4704;SDS011;2366;51.332;6.610;2024-01-25T12:57:58;63.10;;;23.10;;
4704;SDS011;2366;51.332;6.610;2024-01-25T13:00:24;69.82;;;24.00;;
4704;SDS011;2366;51.332;6.610;2024-01-25T13:02:50;59.73;;;21.90;;
4704;SDS011;2366;51.332;6.610;2024-01-25T13:05:15;76.93;;;23.87;;
4704;SDS011;2366;51.332;6.610;2024-01-25T13:07:41;64.97;;;23.60;;
4704;SDS011;2366;51.332;6.610;2024-01-25T13:10:08;70.70;;;24.97;;
4704;SDS011;2366;51.332;6.610;2024-01-25T13:12:34;59.40;;;21.80;;
4704;SDS011;2366;51.332;6.610;2024-01-25T13:14:59;62.03;;;21.33;;
4704;SDS011;2366;51.332;6.610;2024-01-25T13:17:24;64.60;;;20.97;;
4704;SDS011;2366;51.332;6.610;2024-01-25T13:19:50;56.93;;;20.43;;
4704;SDS011;2366;51.332;6.610;2024-01-25T13:22:16;57.57;;;23.17;;
4704;SDS011;2366;51.332;6.610;2024-01-25T13:24:42;53.53;;;22.27;;
4704;SDS011;2366;51.332;6.610;2024-01-25T13:27:08;67.57;;;22.08;;
4704;SDS011;2366;51.332;6.610;2024-01-25T13:29:34;55.80;;;21.70;;
4704;SDS011;2366;51.332;6.610;2024-01-25T13:31:59;57.57;;;21.17;;
4704;SDS011;2366;51.332;6.610;2024-01-25T13:34:24;71.77;;;21.50;;
4704;SDS011;2366;51.332;6.610;2024-01-25T13:36:50;51.93;;;21.43;;
4704;SDS011;2366;51.332;6.610;2024-01-25T13:39:16;55.80;;;19.38;;
4704;SDS011;2366;51.332;6.610;2024-01-25T13:41:42;50.83;;;19.00;;
4704;SDS011;2366;51.332;6.610;2024-01-25T13:44:07;49.77;;;19.30;;
4704;SDS011;2366;51.332;6.610;2024-01-25T13:46:32;54.23;;;19.57;;
4704;SDS011;2366;51.332;6.610;2024-01-25T13:48:58;52.13;;;18.70;;
4704;SDS011;2366;51.332;6.610;2024-01-25T13:51:23;50.20;;;17.27;;
4704;SDS011;2366;51.332;6.610;2024-01-25T13:53:49;46.20;;;18.00;;
4704;SDS011;2366;51.332;6.610;2024-01-25T13:56:14;49.93;;;16.63;;
4704;SDS011;2366;51.332;6.610;2024-01-25T13:58:40;45.50;;;18.50;;
4704;SDS011;2366;51.332;6.610;2024-01-25T14:01:05;54.67;;;17.77;;
4704;SDS011;2366;51.332;6.610;2024-01-25T14:03:30;56.60;;;17.03;;
4704;SDS011;2366;51.332;6.610;2024-01-25T14:05:56;49.20;;;16.90;;
4704;SDS011;2366;51.332;6.610;2024-01-25T14:08:22;50.88;;;19.42;;
4704;SDS011;2366;51.332;6.610;2024-01-25T14:10:48;54.97;;;17.70;;
4704;SDS011;2366;51.332;6.610;2024-01-25T14:13:13;48.10;;;17.80;;
4704;SDS011;2366;51.332;6.610;2024-01-25T14:15:39;47.47;;;16.67;;
4704;SDS011;2366;51.332;6.610;2024-01-25T14:18:04;50.10;;;17.83;;
4704;SDS011;2366;51.332;6.610;2024-01-25T14:20:29;49.63;;;16.80;;
4704;SDS011;2366;51.332;6.610;2024-01-25T14:22:55;54.77;;;16.40;;
4704;SDS011;2366;51.332;6.610;2024-01-25T14:25:20;52.43;;;18.10;;
4704;SDS011;2366;51.332;6.610;2024-01-25T14:27:45;52.70;;;17.40;;
4704;SDS011;2366;51.332;6.610;2024-01-25T14:30:13;63.20;;;17.63;;
4704;SDS011;2366;51.332;6.610;2024-01-25T14:32:40;61.42;;;18.80;;
4704;SDS011;2366;51.332;6.610;2024-01-25T14:35:05;48.90;;;17.00;;
4704;SDS011;2366;51.332;6.610;2024-01-25T14:37:31;56.40;;;20.43;;
4704;SDS011;2366;51.332;6.610;2024-01-25T14:39:57;50.43;;;18.77;;
4704;SDS011;2366;51.332;6.610;2024-01-25T14:42:22;72.20;;;18.80;;